Time;durP1;ratioP1;P1;durP2;ratioP2;P2;SDS_P1;SDS_P2;PMS_P1;PMS_P2;Temp;Humidity;BMP_temperature;BMP_pressure;BME280_temperature;BME280_humidity;BME280_pressure;Samples;Min_cycle;Max_cycle;Signal;HPM_P1;HPM_P2
2021/12/27 00:01:30;;;;;;;182.37;45.60;;;;;;;;;;6166852;23;20170;-70
2021/12/27 00:03:58;;;;;;;155.37;45.13;;;;;;;;;;6165528;23;20489;-70
2021/12/27 00:06:26;;;;;;;139.73;42.83;;;;;;;;;;6157051;23;20187;-70
2021/12/27 00:08:53;;;;;;;165.83;45.90;;;;;;;;;;6157140;23;20181;-69
2021/12/27 00:11:20;;;;;;;568.87;126.13;;;;;;;;;;6157036;23;20181;-71
2021/12/27 00:13:48;;;;;;;308.27;67.00;;;;;;;;;;6157234;23;20182;-70
2021/12/27 00:16:15;;;;;;;225.73;56.53;;;;;;;;;;6156950;23;20202;-70
2021/12/27 00:18:42;;;;;;;111.23;41.60;;;;;;;;;;6156967;23;20236;-70
2021/12/27 00:21:10;;;;;;;209.30;59.30;;;;;;;;;;6156733;23;20642;-69
2021/12/27 00:23:37;;;;;;;455.03;111.67;;;;;;;;;;6157136;23;20185;-69
2021/12/27 00:26:04;;;;;;;478.07;119.27;;;;;;;;;;6156848;23;20216;-71
2021/12/27 00:28:33;;;;;;;512.20;125.13;;;;;;;;;;6166851;23;20189;-69
2021/12/27 00:31:03;;;;;;;557.07;140.53;;;;;;;;;;6157064;23;20545;-70
2021/12/27 00:33:30;;;;;;;349.60;95.13;;;;;;;;;;6155725;23;20181;-69
2021/12/27 00:35:58;;;;;;;214.17;62.03;;;;;;;;;;6156937;23;20181;-69
2021/12/27 00:38:25;;;;;;;207.03;61.13;;;;;;;;;;6156411;23;20212;-70
2021/12/27 00:40:52;;;;;;;395.77;104.90;;;;;;;;;;6156774;23;20181;-70
2021/12/27 00:43:20;;;;;;;293.70;83.03;;;;;;;;;;6156938;23;20190;-70
2021/12/27 00:45:47;;;;;;;447.53;125.60;;;;;;;;;;6156758;23;20700;-70
2021/12/27 00:48:18;;;;;;;339.73;92.50;;;;;;;;;;6156422;23;20498;-70
2021/12/27 00:50:45;;;;;;;285.03;89.87;;;;;;;;;;6156895;23;20173;-69
2021/12/27 00:53:12;;;;;;;191.47;59.00;;;;;;;;;;6156805;23;20208;-69
2021/12/27 00:55:40;;;;;;;194.60;62.10;;;;;;;;;;6156366;23;20625;-70
2021/12/27 00:58:07;;;;;;;113.53;41.60;;;;;;;;;;6156432;23;20186;-71
2021/12/27 01:00:35;;;;;;;126.03;44.77;;;;;;;;;;6156492;23;20197;-71
2021/12/27 01:03:02;;;;;;;140.93;46.30;;;;;;;;;;6156745;23;20178;-70
2021/12/27 01:05:30;;;;;;;257.33;75.67;;;;;;;;;;6156775;23;20603;-71
2021/12/27 01:07:57;;;;;;;276.50;89.00;;;;;;;;;;6156410;23;20186;-71
2021/12/27 01:10:58;;;;;;;185.00;59.00;;;;;;;;;;6156669;23;20186;-69
2021/12/27 01:16:10;;;;;;;443.03;128.30;;;;;;;;;;6156485;23;20615;-69
2021/12/27 01:18:41;;;;;;;356.20;101.77;;;;;;;;;;6155297;23;20195;-70
2021/12/27 01:21:09;;;;;;;250.07;77.23;;;;;;;;;;6156274;23;20188;-70
2021/12/27 01:23:37;;;;;;;154.03;54.03;;;;;;;;;;6156395;23;20182;-70
2021/12/27 01:26:04;;;;;;;173.47;61.37;;;;;;;;;;6156116;23;20239;-71
2021/12/27 01:28:32;;;;;;;198.50;60.77;;;;;;;;;;6156349;23;20188;-70
2021/12/27 01:30:59;;;;;;;382.40;115.87;;;;;;;;;;6156409;23;20208;-70
2021/12/27 01:33:27;;;;;;;422.83;142.07;;;;;;;;;;6156337;23;20265;-70
2021/12/27 01:35:55;;;;;;;256.13;84.73;;;;;;;;;;6156172;23;20192;-70
2021/12/27 01:38:23;;;;;;;203.10;67.70;;;;;;;;;;6154562;23;20182;-69
2021/12/27 01:40:54;;;;;;;471.20;148.73;;;;;;;;;;6155940;23;20271;-70
2021/12/27 01:43:27;;;;;;;447.80;127.80;;;;;;;;;;6156338;23;20221;-70
2021/12/27 01:46:07;;;;;;;475.90;129.03;;;;;;;;;;6156259;23;20177;-69
2021/12/27 01:48:39;;;;;;;375.00;104.83;;;;;;;;;;6156288;23;20177;-75
2021/12/27 01:51:13;;;;;;;140.80;42.43;;;;;;;;;;6156047;23;20176;-70
2021/12/27 01:53:42;;;;;;;128.93;42.10;;;;;;;;;;6165595;23;20184;-70
2021/12/27 01:56:12;;;;;;;170.97;52.93;;;;;;;;;;6154531;23;20181;-69
2021/12/27 01:58:42;;;;;;;228.67;65.97;;;;;;;;;;6156100;23;20181;-70
2021/12/27 02:01:11;;;;;;;209.93;67.93;;;;;;;;;;6156407;23;20181;-70
2021/12/27 02:03:40;;;;;;;300.17;97.90;;;;;;;;;;6156157;23;20182;-70
2021/12/27 02:06:09;;;;;;;196.90;65.53;;;;;;;;;;6155769;23;20676;-69
2021/12/27 02:08:38;;;;;;;211.13;66.67;;;;;;;;;;6155963;23;20181;-71
2021/12/27 02:11:06;;;;;;;199.67;61.27;;;;;;;;;;6156024;23;20183;-70
2021/12/27 02:13:33;;;;;;;120.13;41.53;;;;;;;;;;6154835;23;20185;-69
2021/12/27 02:16:00;;;;;;;116.70;38.03;;;;;;;;;;6156188;23;20181;-69
2021/12/27 02:18:28;;;;;;;133.90;40.33;;;;;;;;;;6155975;23;20185;-70
2021/12/27 02:20:55;;;;;;;118.37;38.90;;;;;;;;;;6155255;23;20538;-70
2021/12/27 02:23:23;;;;;;;130.30;41.70;;;;;;;;;;6155731;23;20185;-70
2021/12/27 02:25:51;;;;;;;162.97;45.93;;;;;;;;;;6155795;23;20202;-70
2021/12/27 02:28:20;;;;;;;138.57;44.73;;;;;;;;;;6155772;23;20217;-70
2021/12/27 02:30:50;;;;;;;187.57;56.97;;;;;;;;;;6154475;23;20524;-69
2021/12/27 02:33:18;;;;;;;126.70;40.13;;;;;;;;;;6154658;23;20180;-69
2021/12/27 02:35:54;;;;;;;141.70;43.30;;;;;;;;;;6156090;23;20186;-69
2021/12/27 02:38:27;;;;;;;136.27;44.90;;;;;;;;;;6156102;23;20519;-69
2021/12/27 02:40:56;;;;;;;138.13;42.70;;;;;;;;;;6155455;23;20217;-70
2021/12/27 02:43:25;;;;;;;126.63;41.53;;;;;;;;;;6155811;23;20189;-70
2021/12/27 02:45:56;;;;;;;244.43;83.10;;;;;;;;;;6155918;23;20182;-70
2021/12/27 02:48:26;;;;;;;239.47;73.50;;;;;;;;;;6155560;23;20175;-70
2021/12/27 02:50:54;;;;;;;390.57;116.37;;;;;;;;;;6155883;23;20278;-70
2021/12/27 02:53:22;;;;;;;159.67;52.73;;;;;;;;;;6155844;23;20185;-70
2021/12/27 02:55:51;;;;;;;145.33;53.93;;;;;;;;;;6155838;23;20189;-70
2021/12/27 02:58:19;;;;;;;200.37;62.40;;;;;;;;;;6155778;23;20185;-70
2021/12/27 03:01:01;;;;;;;165.37;51.83;;;;;;;;;;6155474;23;20653;-70
2021/12/27 03:03:29;;;;;;;147.00;48.37;;;;;;;;;;6155389;23;20671;-70
2021/12/27 03:05:56;;;;;;;153.77;47.90;;;;;;;;;;6155801;23;20186;-71
2021/12/27 03:08:26;;;;;;;141.93;46.13;;;;;;;;;;6155715;23;20186;-70
2021/12/27 03:10:56;;;;;;;162.57;52.50;;;;;;;;;;6154255;23;20228;-69
2021/12/27 03:13:32;;;;;;;183.87;55.70;;;;;;;;;;6155421;23;20182;-69
2021/12/27 03:16:12;;;;;;;193.13;70.57;;;;;;;;;;6155682;23;20170;-69
2021/12/27 03:18:42;;;;;;;278.10;80.60;;;;;;;;;;6155725;23;20189;-69
2021/12/27 03:21:10;;;;;;;448.37;120.20;;;;;;;;;;6155660;23;20216;-70
2021/12/27 03:23:38;;;;;;;165.90;53.47;;;;;;;;;;6154190;23;20216;-70
2021/12/27 03:26:06;;;;;;;164.40;50.00;;;;;;;;;;6155520;23;20212;-70
2021/12/27 03:28:34;;;;;;;165.53;53.37;;;;;;;;;;6155763;23;20206;-70
2021/12/27 03:31:01;;;;;;;215.63;61.70;;;;;;;;;;6155523;23;20189;-71
2021/12/27 03:33:29;;;;;;;141.80;43.63;;;;;;;;;;6157436;23;20268;-72
2021/12/27 03:36:01;;;;;;;124.60;33.77;;;;;;;;;;6157049;23;20554;-70
2021/12/27 03:38:33;;;;;;;107.37;33.80;;;;;;;;;;6157397;23;20174;-70
2021/12/27 03:41:02;;;;;;;121.87;38.93;;;;;;;;;;6167026;23;20629;-69
2021/12/27 03:43:29;;;;;;;133.53;39.53;;;;;;;;;;6157260;23;20575;-70
2021/12/27 03:45:56;;;;;;;113.00;35.97;;;;;;;;;;6157163;23;20580;-70
2021/12/27 03:48:24;;;;;;;116.13;38.53;;;;;;;;;;6157016;23;20182;-71
2021/12/27 03:50:52;;;;;;;195.37;51.23;;;;;;;;;;6157175;23;20181;-69
2021/12/27 03:53:19;;;;;;;108.23;34.67;;;;;;;;;;6157356;23;20188;-70
2021/12/27 03:55:47;;;;;;;103.50;33.67;;;;;;;;;;6157360;23;20189;-70
2021/12/27 03:58:28;;;;;;;123.80;43.30;;;;;;;;;;6156940;23;20174;-70
2021/12/27 04:03:37;;;;;;;124.77;36.30;;;;;;;;;;6166965;23;20621;-70
2021/12/27 04:06:05;;;;;;;117.27;35.80;;;;;;;;;;6157262;23;20643;-70
2021/12/27 04:08:32;;;;;;;94.57;29.53;;;;;;;;;;6157416;23;20484;-69
2021/12/27 04:10:59;;;;;;;88.50;29.10;;;;;;;;;;6157194;23;20189;-70
2021/12/27 04:13:27;;;;;;;107.80;37.13;;;;;;;;;;6157139;23;20182;-70
2021/12/27 04:15:54;;;;;;;91.00;30.07;;;;;;;;;;6157335;23;20182;-70
2021/12/27 04:18:22;;;;;;;103.00;33.93;;;;;;;;;;6155490;23;20181;-70
2021/12/27 04:20:49;;;;;;;284.57;61.83;;;;;;;;;;6157054;23;20219;-69
2021/12/27 04:23:17;;;;;;;185.23;43.20;;;;;;;;;;6156948;23;20478;-69
2021/12/27 04:25:44;;;;;;;104.83;37.37;;;;;;;;;;6156823;23;20213;-69
2021/12/27 04:28:12;;;;;;;80.60;28.50;;;;;;;;;;6156640;23;20169;-70
2021/12/27 04:30:39;;;;;;;90.03;26.60;;;;;;;;;;6156921;23;20185;-70
2021/12/27 04:33:07;;;;;;;155.33;27.30;;;;;;;;;;6157330;23;20209;-69
2021/12/27 04:35:34;;;;;;;140.70;29.07;;;;;;;;;;6157139;23;20553;-70
2021/12/27 04:38:05;;;;;;;108.90;25.93;;;;;;;;;;6156980;23;20181;-70
2021/12/27 04:40:35;;;;;;;159.23;28.10;;;;;;;;;;6155035;23;20653;-70
2021/12/27 04:43:17;;;;;;;201.63;33.13;;;;;;;;;;6155201;23;20214;-69
2021/12/27 04:45:46;;;;;;;76.27;26.07;;;;;;;;;;6156927;23;20170;-70
2021/12/27 04:48:14;;;;;;;108.73;29.93;;;;;;;;;;6156506;23;20571;-72
2021/12/27 04:50:42;;;;;;;150.20;35.70;;;;;;;;;;6155268;23;20201;-68
2021/12/27 04:53:09;;;;;;;82.30;30.33;;;;;;;;;;6156819;23;20244;-70
2021/12/27 04:55:36;;;;;;;162.80;30.03;;;;;;;;;;6156734;23;20512;-80
2021/12/27 04:58:08;;;;;;;185.20;29.20;;;;;;;;;;6156904;23;20182;-79
2021/12/27 05:00:36;;;;;;;259.30;36.47;;;;;;;;;;6156681;23;20560;-79
2021/12/27 05:03:05;;;;;;;207.57;42.77;;;;;;;;;;6155411;23;20187;-75
2021/12/27 05:05:33;;;;;;;144.03;31.40;;;;;;;;;;6156747;23;20241;-77
2021/12/27 05:08:01;;;;;;;100.53;30.87;;;;;;;;;;6156788;23;20256;-75
2021/12/27 05:10:30;;;;;;;121.10;28.40;;;;;;;;;;6156441;23;20639;-70
2021/12/27 05:12:57;;;;;;;149.80;23.07;;;;;;;;;;6153519;23;20626;-72
2021/12/27 05:15:25;;;;;;;117.73;24.70;;;;;;;;;;6155986;23;20185;-74
2021/12/27 05:17:52;;;;;;;126.00;26.67;;;;;;;;;;6129975;23;20723;-75
2021/12/27 05:20:20;;;;;;;210.23;31.27;;;;;;;;;;6155285;23;20212;-71
2021/12/27 05:22:47;;;;;;;167.17;25.97;;;;;;;;;;6155805;23;20234;-69
2021/12/27 05:25:16;;;;;;;85.60;23.67;;;;;;;;;;6155884;23;20239;-70
2021/12/27 05:27:44;;;;;;;87.77;22.87;;;;;;;;;;6154794;23;20209;-70
2021/12/27 05:30:18;;;;;;;123.17;27.53;;;;;;;;;;6156049;23;20172;-69
2021/12/27 05:32:45;;;;;;;92.53;27.30;;;;;;;;;;6155884;23;20264;-70
2021/12/27 05:35:13;;;;;;;90.70;31.53;;;;;;;;;;6154544;23;20185;-69
2021/12/27 05:37:42;;;;;;;103.93;28.83;;;;;;;;;;6155305;23;20178;-70
2021/12/27 05:40:14;;;;;;;76.33;25.47;;;;;;;;;;6155639;23;20205;-69
2021/12/27 05:42:42;;;;;;;73.33;25.57;;;;;;;;;;6164496;23;20169;-70
2021/12/27 05:45:09;;;;;;;66.77;22.23;;;;;;;;;;6155539;23;20689;-70
2021/12/27 05:47:37;;;;;;;97.27;26.37;;;;;;;;;;6155487;23;20625;-69
2021/12/27 05:50:05;;;;;;;85.00;27.20;;;;;;;;;;6155978;23;20187;-70
2021/12/27 05:52:32;;;;;;;170.63;26.23;;;;;;;;;;6155278;23;20680;-70
2021/12/27 05:54:59;;;;;;;128.60;27.23;;;;;;;;;;6155401;23;20185;-69
2021/12/27 05:57:27;;;;;;;71.07;20.97;;;;;;;;;;6154575;23;20181;-73
2021/12/27 05:59:54;;;;;;;126.57;26.23;;;;;;;;;;6155083;23;20632;-70
2021/12/27 06:02:21;;;;;;;66.73;23.50;;;;;;;;;;6154595;23;20181;-67
2021/12/27 06:04:50;;;;;;;98.20;24.07;;;;;;;;;;6154685;23;20632;-70
2021/12/27 06:07:17;;;;;;;123.67;42.37;;;;;;;;;;6155582;23;20557;-69
2021/12/27 06:09:44;;;;;;;83.40;25.20;;;;;;;;;;6155565;23;20260;-66
2021/12/27 06:12:11;;;;;;;89.27;25.17;;;;;;;;;;6155570;23;20516;-68
2021/12/27 06:14:39;;;;;;;72.93;26.27;;;;;;;;;;6155756;23;20181;-69
2021/12/27 06:17:06;;;;;;;81.73;25.27;;;;;;;;;;6155492;23;20201;-68
2021/12/27 06:19:34;;;;;;;74.20;24.67;;;;;;;;;;6154391;23;20189;-68
2021/12/27 06:22:02;;;;;;;58.27;21.77;;;;;;;;;;6155478;23;20209;-68
2021/12/27 06:24:30;;;;;;;73.23;22.10;;;;;;;;;;6153897;23;20185;-68
2021/12/27 06:26:57;;;;;;;75.60;21.40;;;;;;;;;;6153646;23;20205;-67
2021/12/27 06:29:24;;;;;;;81.63;28.53;;;;;;;;;;6154967;23;20213;-68
2021/12/27 06:31:51;;;;;;;80.60;31.13;;;;;;;;;;6155048;23;20549;-68
2021/12/27 06:34:19;;;;;;;180.33;84.93;;;;;;;;;;6155616;23;20182;-70
2021/12/27 06:36:46;;;;;;;85.90;29.10;;;;;;;;;;6155210;23;20209;-70
2021/12/27 06:39:14;;;;;;;63.00;21.33;;;;;;;;;;6155467;23;20233;-70
2021/12/27 06:41:41;;;;;;;59.27;22.47;;;;;;;;;;6155347;23;20213;-69
2021/12/27 06:44:08;;;;;;;156.00;25.53;;;;;;;;;;6155454;23;20181;-68
2021/12/27 06:46:36;;;;;;;109.70;32.33;;;;;;;;;;6155098;23;20228;-77
2021/12/27 06:49:03;;;;;;;180.10;26.47;;;;;;;;;;6154164;23;20181;-71
2021/12/27 06:51:30;;;;;;;124.40;32.40;;;;;;;;;;6155250;23;20212;-70
2021/12/27 06:53:57;;;;;;;95.93;29.73;;;;;;;;;;6155388;23;20524;-68
2021/12/27 06:56:25;;;;;;;90.83;31.70;;;;;;;;;;6154954;23;20185;-70
2021/12/27 06:58:52;;;;;;;84.90;27.80;;;;;;;;;;6154941;23;20503;-68
2021/12/27 07:01:19;;;;;;;77.90;24.73;;;;;;;;;;6155222;23;20234;-70
2021/12/27 07:03:47;;;;;;;79.67;27.43;;;;;;;;;;6153749;23;20207;-68
2021/12/27 07:06:14;;;;;;;142.90;28.17;;;;;;;;;;6152070;23;20936;-68
2021/12/27 07:08:42;;;;;;;102.57;31.97;;;;;;;;;;6154497;23;20617;-67
2021/12/27 07:11:11;;;;;;;219.33;108.73;;;;;;;;;;6156956;23;20181;-75
2021/12/27 07:13:40;;;;;;;100.10;37.20;;;;;;;;;;6155337;23;20177;-72
2021/12/27 07:16:08;;;;;;;123.83;55.37;;;;;;;;;;6155384;23;20228;-76
2021/12/27 07:18:35;;;;;;;109.13;44.03;;;;;;;;;;6155742;23;20516;-72
2021/12/27 07:21:03;;;;;;;94.77;38.10;;;;;;;;;;6155118;23;20205;-75
2021/12/27 07:23:30;;;;;;;108.40;39.53;;;;;;;;;;6155863;23;20193;-74
2021/12/27 07:25:57;;;;;;;220.27;62.50;;;;;;;;;;6155593;23;20665;-74
2021/12/27 07:28:25;;;;;;;91.87;32.90;;;;;;;;;;6152741;23;20549;-71
2021/12/27 07:30:52;;;;;;;82.90;32.90;;;;;;;;;;6155794;23;20205;-80
2021/12/27 07:33:20;;;;;;;156.50;35.00;;;;;;;;;;6155630;23;20189;-71
2021/12/27 07:35:47;;;;;;;93.13;34.73;;;;;;;;;;6156154;23;20208;-71
2021/12/27 07:38:15;;;;;;;98.80;34.33;;;;;;;;;;6155721;23;20182;-74
2021/12/27 07:40:42;;;;;;;104.60;34.33;;;;;;;;;;6156870;23;20205;-70
2021/12/27 07:43:10;;;;;;;107.00;36.17;;;;;;;;;;6155032;23;20186;-69
2021/12/27 07:45:37;;;;;;;100.40;34.93;;;;;;;;;;6157229;23;20248;-71
2021/12/27 07:48:07;;;;;;;150.20;40.50;;;;;;;;;;6157057;23;20188;-72
2021/12/27 07:50:35;;;;;;;95.37;34.53;;;;;;;;;;6156480;23;20505;-71
2021/12/27 07:53:04;;;;;;;145.70;38.30;;;;;;;;;;6156250;23;20186;-72
2021/12/27 07:55:32;;;;;;;122.33;39.93;;;;;;;;;;6156309;23;20182;-77
2021/12/27 07:58:00;;;;;;;128.33;46.77;;;;;;;;;;6155768;23;20189;-71
2021/12/27 08:00:27;;;;;;;107.17;42.77;;;;;;;;;;6156562;23;20663;-75
2021/12/27 08:02:55;;;;;;;128.93;43.97;;;;;;;;;;6154694;23;20208;-71
2021/12/27 08:05:26;;;;;;;101.00;37.40;;;;;;;;;;6155405;23;20181;-76
2021/12/27 08:07:54;;;;;;;109.80;39.70;;;;;;;;;;6145031;23;20189;-70
2021/12/27 08:10:22;;;;;;;121.43;41.17;;;;;;;;;;6154039;23;20915;-71
2021/12/27 08:12:49;;;;;;;123.27;41.57;;;;;;;;;;6155558;23;20497;-70
2021/12/27 08:15:16;;;;;;;106.53;40.33;;;;;;;;;;6156673;23;20540;-69
2021/12/27 08:17:44;;;;;;;135.43;46.27;;;;;;;;;;6155289;23;20188;-71
2021/12/27 08:20:11;;;;;;;123.07;42.10;;;;;;;;;;6155318;23;20228;-68
2021/12/27 08:22:39;;;;;;;140.57;54.60;;;;;;;;;;6155955;23;20248;-69
2021/12/27 08:25:07;;;;;;;144.33;47.63;;;;;;;;;;6156925;23;20233;-70
2021/12/27 08:27:37;;;;;;;141.47;47.53;;;;;;;;;;6156998;23;20213;-69
2021/12/27 08:30:06;;;;;;;140.33;51.00;;;;;;;;;;6156163;23;20478;-70
2021/12/27 08:32:34;;;;;;;121.23;46.47;;;;;;;;;;6155483;23;20301;-69
2021/12/27 08:35:03;;;;;;;110.43;44.03;;;;;;;;;;6154819;23;20188;-70
2021/12/27 08:37:31;;;;;;;132.23;47.27;;;;;;;;;;6154434;23;20185;-70
2021/12/27 08:39:59;;;;;;;130.60;44.00;;;;;;;;;;6155408;23;20239;-69
2021/12/27 08:42:28;;;;;;;100.60;37.90;;;;;;;;;;6155219;23;20701;-69
2021/12/27 08:44:55;;;;;;;111.77;42.73;;;;;;;;;;6156491;23;20276;-72
2021/12/27 08:47:23;;;;;;;93.80;35.77;;;;;;;;;;6156729;23;20182;-72
2021/12/27 08:49:51;;;;;;;100.63;37.97;;;;;;;;;;6155945;23;20253;-72
2021/12/27 08:52:31;;;;;;;88.60;36.47;;;;;;;;;;6156477;23;20177;-70
2021/12/27 08:55:01;;;;;;;95.83;35.20;;;;;;;;;;6155059;23;20269;-69
2021/12/27 08:57:31;;;;;;;87.23;35.83;;;;;;;;;;6155556;23;20174;-69
2021/12/27 09:00:00;;;;;;;91.53;34.03;;;;;;;;;;6156983;23;20173;-71
2021/12/27 09:02:27;;;;;;;103.50;35.03;;;;;;;;;;6156589;23;20205;-69
2021/12/27 09:04:55;;;;;;;97.63;36.37;;;;;;;;;;6157094;23;20206;-70
2021/12/27 09:07:23;;;;;;;111.23;38.90;;;;;;;;;;6156845;23;20257;-70
2021/12/27 09:09:50;;;;;;;97.27;39.23;;;;;;;;;;6155412;23;20264;-68
2021/12/27 09:12:19;;;;;;;96.47;38.27;;;;;;;;;;6154643;23;20205;-70
2021/12/27 09:14:46;;;;;;;107.67;38.40;;;;;;;;;;6155982;23;20182;-73
2021/12/27 09:17:13;;;;;;;94.27;35.63;;;;;;;;;;6156145;23;20640;-74
2021/12/27 09:19:42;;;;;;;92.37;36.13;;;;;;;;;;6155970;23;20189;-69
2021/12/27 09:22:10;;;;;;;98.93;36.57;;;;;;;;;;6156614;23;20216;-69
2021/12/27 09:24:37;;;;;;;105.73;39.47;;;;;;;;;;6156476;23;20641;-70
2021/12/27 09:27:05;;;;;;;91.83;33.37;;;;;;;;;;6156180;23;20530;-69
2021/12/27 09:29:32;;;;;;;92.53;36.83;;;;;;;;;;6156578;23;20268;-69
2021/12/27 09:31:59;;;;;;;92.07;32.60;;;;;;;;;;6155084;23;20185;-72
2021/12/27 09:34:27;;;;;;;90.87;35.27;;;;;;;;;;6153718;23;20513;-69
2021/12/27 09:36:55;;;;;;;106.87;38.67;;;;;;;;;;6155310;23;20274;-73
2021/12/27 09:39:22;;;;;;;91.13;32.43;;;;;;;;;;6156421;23;20181;-69
2021/12/27 09:41:49;;;;;;;92.47;37.30;;;;;;;;;;6152906;23;20248;-70
2021/12/27 09:44:17;;;;;;;110.20;39.37;;;;;;;;;;6154404;23;20264;-71
2021/12/27 09:46:49;;;;;;;118.87;43.03;;;;;;;;;;6164866;23;20245;-70
2021/12/27 09:49:19;;;;;;;223.73;76.67;;;;;;;;;;6156454;23;20177;-69
2021/12/27 09:51:47;;;;;;;626.23;229.77;;;;;;;;;;6155642;23;20184;-70
2021/12/27 09:54:14;;;;;;;393.00;125.50;;;;;;;;;;6152577;23;20185;-70
2021/12/27 09:56:42;;;;;;;292.13;119.13;;;;;;;;;;6153615;23;20260;-69
2021/12/27 09:59:10;;;;;;;95.27;39.80;;;;;;;;;;6152802;23;20264;-73
2021/12/27 10:01:38;;;;;;;91.93;36.30;;;;;;;;;;6155041;23;20205;-69
2021/12/27 10:04:06;;;;;;;85.13;33.33;;;;;;;;;;6153966;23;20212;-70
2021/12/27 10:06:34;;;;;;;86.97;33.97;;;;;;;;;;6155086;23;20181;-71
2021/12/27 10:09:05;;;;;;;82.33;31.27;;;;;;;;;;6155178;23;20205;-68
2021/12/27 10:11:35;;;;;;;83.50;35.50;;;;;;;;;;6154592;23;20684;-72
2021/12/27 10:14:05;;;;;;;83.67;33.33;;;;;;;;;;6154660;23;20170;-73
2021/12/27 10:16:40;;;;;;;93.23;35.83;;;;;;;;;;6154629;23;20232;-71
2021/12/27 10:19:10;;;;;;;86.93;36.97;;;;;;;;;;6138942;23;20252;-71
2021/12/27 10:21:41;;;;;;;82.37;35.63;;;;;;;;;;6162723;23;20189;-70
2021/12/27 10:24:15;;;;;;;102.97;40.40;;;;;;;;;;6153397;23;20170;-73
2021/12/27 10:26:46;;;;;;;96.30;38.20;;;;;;;;;;6157209;23;20680;-73
2021/12/27 10:29:19;;;;;;;84.60;36.27;;;;;;;;;;6163529;23;20189;-74
2021/12/27 10:31:55;;;;;;;80.23;32.97;;;;;;;;;;6164010;23;20180;-73
2021/12/27 10:34:29;;;;;;;82.03;34.00;;;;;;;;;;6155124;23;20239;-69
2021/12/27 10:37:13;;;;;;;82.80;32.10;;;;;;;;;;6164526;23;20166;-69
2021/12/27 10:39:54;;;;;;;79.40;32.10;;;;;;;;;;6154086;23;20190;-63
2021/12/27 10:42:36;;;;;;;73.03;29.27;;;;;;;;;;6153454;23;20201;-67
2021/12/27 10:45:08;;;;;;;78.10;31.67;;;;;;;;;;6164565;23;20181;-70
2021/12/27 10:47:44;;;;;;;81.47;34.17;;;;;;;;;;6163592;23;20189;-68
2021/12/27 10:50:26;;;;;;;78.93;34.60;;;;;;;;;;6163330;23;20174;-69
2021/12/27 10:52:55;;;;;;;88.70;37.70;;;;;;;;;;6163505;23;20896;-70
2021/12/27 10:55:26;;;;;;;89.37;33.90;;;;;;;;;;6152915;23;20264;-70
2021/12/27 10:58:12;;;;;;;84.63;34.30;;;;;;;;;;6153772;23;20245;-69
2021/12/27 11:00:40;;;;;;;85.40;33.67;;;;;;;;;;6153984;23;20284;-68
2021/12/27 11:03:23;;;;;;;86.50;33.53;;;;;;;;;;6153173;23;20209;-67
2021/12/27 11:05:52;;;;;;;98.30;37.47;;;;;;;;;;6153673;23;20177;-69
2021/12/27 11:08:26;;;;;;;93.57;33.90;;;;;;;;;;6152648;23;20174;-67
2021/12/27 11:10:54;;;;;;;86.23;33.20;;;;;;;;;;6151896;23;20213;-70
2021/12/27 11:13:24;;;;;;;87.67;33.30;;;;;;;;;;6154682;23;20479;-73
2021/12/27 11:15:55;;;;;;;85.10;33.47;;;;;;;;;;6164732;23;20170;-69
2021/12/27 11:18:24;;;;;;;80.40;34.00;;;;;;;;;;6154348;23;20188;-67
2021/12/27 11:20:54;;;;;;;74.37;30.37;;;;;;;;;;6154860;23;20212;-71
2021/12/27 11:23:23;;;;;;;72.10;30.27;;;;;;;;;;6154127;23;20208;-69
2021/12/27 11:26:02;;;;;;;67.17;28.53;;;;;;;;;;6154203;23;20205;-67
2021/12/27 11:28:38;;;;;;;73.73;28.50;;;;;;;;;;6155050;23;20498;-67
2021/12/27 11:31:24;;;;;;;70.87;27.23;;;;;;;;;;6165025;23;20601;-64
2021/12/27 11:33:56;;;;;;;67.07;27.07;;;;;;;;;;6164774;23;20170;-68
2021/12/27 11:36:31;;;;;;;66.90;28.43;;;;;;;;;;6154353;23;20535;-70
2021/12/27 11:39:00;;;;;;;67.50;27.73;;;;;;;;;;6154184;23;20170;-67
2021/12/27 11:41:33;;;;;;;82.80;35.73;;;;;;;;;;6153726;23;20212;-67
2021/12/27 11:44:09;;;;;;;73.03;32.80;;;;;;;;;;6154596;23;20177;-68
2021/12/27 11:47:04;;;;;;;72.63;28.93;;;;;;;;;;6154666;23;20497;-68
2021/12/27 11:49:48;;;;;;;63.97;28.33;;;;;;;;;;6151870;23;20193;-67
2021/12/27 11:52:23;;;;;;;69.20;27.13;;;;;;;;;;6163708;23;20170;-71
2021/12/27 11:54:53;;;;;;;66.07;25.00;;;;;;;;;;6165610;23;20196;-68
2021/12/27 11:57:42;;;;;;;70.77;26.43;;;;;;;;;;6166444;23;20165;-67
2021/12/27 12:00:23;;;;;;;66.13;26.77;;;;;;;;;;6166435;23;20170;-66
2021/12/27 12:02:54;;;;;;;62.37;25.27;;;;;;;;;;6165670;23;20193;-66
2021/12/27 12:05:39;;;;;;;66.30;27.87;;;;;;;;;;6155697;23;20197;-64
2021/12/27 12:08:08;;;;;;;62.90;24.23;;;;;;;;;;6155369;23;20220;-67
2021/12/27 12:10:37;;;;;;;62.07;28.10;;;;;;;;;;6155686;23;20208;-65
2021/12/27 12:13:20;;;;;;;65.97;28.27;;;;;;;;;;6154878;23;20188;-66
2021/12/27 12:15:55;;;;;;;72.57;29.03;;;;;;;;;;6165678;23;20177;-66
2021/12/27 12:18:22;;;;;;;74.73;32.93;;;;;;;;;;6165795;23;20173;-66
2021/12/27 12:20:50;;;;;;;68.63;30.93;;;;;;;;;;6154374;23;20182;-65
2021/12/27 12:23:17;;;;;;;72.93;31.30;;;;;;;;;;6153261;23;20551;-67
2021/12/27 12:25:44;;;;;;;68.60;28.20;;;;;;;;;;6155465;23;20264;-66
2021/12/27 12:28:15;;;;;;;68.47;32.90;;;;;;;;;;6157182;23;20173;-65
2021/12/27 12:30:47;;;;;;;73.77;33.00;;;;;;;;;;6155568;23;20244;-67
2021/12/27 12:33:23;;;;;;;66.57;30.67;;;;;;;;;;6165499;23;20201;-67
2021/12/27 12:35:56;;;;;;;62.47;26.83;;;;;;;;;;6166629;23;20474;-69
2021/12/27 12:38:36;;;;;;;60.03;26.83;;;;;;;;;;6156327;23;20169;-68
2021/12/27 12:41:05;;;;;;;62.80;27.27;;;;;;;;;;6155380;23;20176;-68
2021/12/27 12:43:35;;;;;;;64.07;29.80;;;;;;;;;;6156493;23;20653;-68
2021/12/27 12:46:12;;;;;;;72.40;27.50;;;;;;;;;;6166600;23;20202;-68
2021/12/27 12:48:39;;;;;;;60.27;27.87;;;;;;;;;;6166689;23;20166;-67
2021/12/27 12:51:06;;;;;;;67.23;30.87;;;;;;;;;;6156650;23;20185;-72
2021/12/27 12:53:34;;;;;;;67.10;30.33;;;;;;;;;;6156111;23;20185;-69
2021/12/27 12:56:05;;;;;;;65.90;31.73;;;;;;;;;;6153750;23;20190;-64
2021/12/27 12:58:33;;;;;;;67.83;26.50;;;;;;;;;;6164870;23;20174;-65
2021/12/27 13:01:06;;;;;;;56.70;24.20;;;;;;;;;;6155288;23;20217;-70
2021/12/27 13:03:36;;;;;;;59.10;27.30;;;;;;;;;;6152968;23;20251;-68
2021/12/27 13:06:07;;;;;;;61.80;28.87;;;;;;;;;;6154150;23;20189;-69
2021/12/27 13:08:35;;;;;;;54.67;23.33;;;;;;;;;;6156416;23;20177;-69
2021/12/27 13:11:02;;;;;;;58.87;24.63;;;;;;;;;;6154766;23;20647;-70
2021/12/27 13:13:31;;;;;;;53.53;23.67;;;;;;;;;;6153853;23;20189;-70
2021/12/27 13:16:02;;;;;;;60.30;26.30;;;;;;;;;;6156674;23;20213;-71
2021/12/27 13:18:32;;;;;;;55.30;26.27;;;;;;;;;;6156490;23;20170;-69
2021/12/27 13:21:07;;;;;;;56.33;25.07;;;;;;;;;;6156186;23;20261;-67
2021/12/27 13:23:37;;;;;;;60.73;25.53;;;;;;;;;;6165583;23;20196;-74
2021/12/27 13:26:07;;;;;;;57.30;24.50;;;;;;;;;;6105882;23;20223;-72
2021/12/27 13:28:38;;;;;;;56.77;24.70;;;;;;;;;;6156288;23;20264;-69
2021/12/27 13:31:22;;;;;;;53.77;23.60;;;;;;;;;;6166098;23;20196;-74
2021/12/27 13:34:02;;;;;;;55.97;23.83;;;;;;;;;;6165932;23;20174;-71
2021/12/27 13:36:41;;;;;;;54.97;23.43;;;;;;;;;;6165753;23;20229;-75
2021/12/27 13:39:10;;;;;;;53.47;23.13;;;;;;;;;;6155424;23;20170;-69
2021/12/27 13:41:40;;;;;;;58.13;23.97;;;;;;;;;;6155975;23;20182;-71
2021/12/27 13:44:10;;;;;;;55.80;24.47;;;;;;;;;;6156455;23;20204;-73
2021/12/27 13:46:47;;;;;;;56.27;21.60;;;;;;;;;;6165664;23;20602;-74
2021/12/27 13:49:15;;;;;;;59.17;24.03;;;;;;;;;;6154760;23;20174;-71
2021/12/27 13:51:43;;;;;;;53.10;23.43;;;;;;;;;;6155874;23;20539;-69
2021/12/27 13:54:16;;;;;;;55.87;21.73;;;;;;;;;;6155847;23;20185;-70
2021/12/27 13:56:47;;;;;;;60.20;25.67;;;;;;;;;;6156019;23;20169;-68
2021/12/27 13:59:17;;;;;;;50.20;21.97;;;;;;;;;;6154466;23;20185;-67
2021/12/27 14:02:00;;;;;;;58.50;27.37;;;;;;;;;;6155730;23;20198;-73
2021/12/27 14:04:29;;;;;;;54.90;25.43;;;;;;;;;;6153925;23;20169;-71
2021/12/27 14:06:58;;;;;;;56.50;24.43;;;;;;;;;;6155678;23;20185;-71
2021/12/27 14:09:28;;;;;;;56.47;22.00;;;;;;;;;;6155156;23;20602;-71
2021/12/27 14:11:58;;;;;;;64.03;26.97;;;;;;;;;;6154413;23;20526;-68
2021/12/27 14:14:54;;;;;;;56.20;24.10;;;;;;;;;;6156238;23;20185;-72
2021/12/27 14:17:25;;;;;;;56.83;24.93;;;;;;;;;;6129934;23;20192;-68
2021/12/27 14:20:11;;;;;;;60.60;28.30;;;;;;;;;;6156461;23;20220;-69
2021/12/27 14:22:47;;;;;;;56.27;23.00;;;;;;;;;;6155979;23;20592;-68
2021/12/27 14:25:16;;;;;;;67.80;29.40;;;;;;;;;;6155127;23;20589;-69
2021/12/27 14:27:47;;;;;;;79.20;31.33;;;;;;;;;;6155653;23;20652;-70
2021/12/27 14:30:24;;;;;;;77.40;29.77;;;;;;;;;;6161188;23;20177;-66